Time;durP1;ratioP1;P1;durP2;ratioP2;P2;SDS_P1;SDS_P2;PMS_P1;PMS_P2;Temp;Humidity;BMP_temperature;BMP_pressure;BME280_temperature;BME280_humidity;BME280_pressure;Samples;Min_cycle;Max_cycle;Signal;HPM_P1;HPM_P2
2021/12/13 00:01:18;;;;;;;10.87;7.47;;;4.80;71.40;;;;;;4984782;28;19957;-81
2021/12/13 00:04:02;;;;;;;14.30;8.40;;;4.80;71.70;;;;;;4963606;28;20058;-81
2021/12/13 00:06:36;;;;;;;13.47;8.27;;;5.00;71.40;;;;;;4961078;28;20061;-81
2021/12/13 00:09:06;;;;;;;12.07;8.37;;;5.00;71.30;;;;;;4992585;28;20026;-81
2021/12/13 00:11:37;;;;;;;13.43;8.87;;;5.00;71.50;;;;;;4963514;28;20022;-81
2021/12/13 00:14:20;;;;;;;15.47;9.90;;;5.00;71.20;;;;;;4965525;28;20035;-81
2021/12/13 00:16:59;;;;;;;21.08;10.55;;;5.00;71.20;;;;;;4982886;28;20102;-81
2021/12/13 00:19:33;;;;;;;15.73;10.40;;;4.90;71.80;;;;;;4961710;28;20038;-81
2021/12/13 00:22:07;;;;;;;19.83;9.90;;;4.90;71.40;;;;;;4991124;28;20019;-81
2021/12/13 00:24:36;;;;;;;14.47;9.20;;;4.80;71.20;;;;;;4971753;28;20033;-81
2021/12/13 00:27:05;;;;;;;17.23;7.80;;;4.90;71.90;;;;;;4983646;28;20055;-81
2021/12/13 00:29:45;;;;;;;14.93;8.77;;;5.10;72.10;;;;;;4983277;28;20490;-81
2021/12/13 00:32:37;;;;;;;17.77;9.77;;;5.20;71.40;;;;;;4962942;28;20038;-81
2021/12/13 00:35:08;;;;;;;21.57;10.87;;;5.10;71.00;;;;;;4963161;28;20033;-81
2021/12/13 00:37:39;;;;;;;19.87;10.63;;;5.00;71.20;;;;;;4986077;28;20030;-81
2021/12/13 00:40:14;;;;;;;17.27;8.90;;;4.80;71.10;;;;;;4980898;28;20117;-81
2021/12/13 00:42:45;;;;;;;24.63;10.30;;;4.80;71.70;;;;;;4962676;28;20065;-81
2021/12/13 00:45:15;;;;;;;14.87;9.90;;;4.70;71.60;;;;;;4964013;28;20057;-81
2021/12/13 00:47:43;;;;;;;21.13;10.40;;;4.60;71.60;;;;;;4980940;28;20023;-80
2021/12/13 00:50:25;;;;;;;14.77;9.60;;;4.60;72.20;;;;;;4976217;28;20340;-80
2021/12/13 00:52:52;;;;;;;15.77;9.53;;;4.50;72.50;;;;;;4990763;28;20489;-81
2021/12/13 00:55:23;;;;;;;15.53;9.97;;;4.50;72.70;;;;;;4960472;28;20031;-80
2021/12/13 00:58:08;;;;;;;19.57;9.13;;;4.50;72.70;;;;;;4960991;28;20043;-80
2021/12/13 01:00:46;;;;;;;16.87;9.00;;;4.40;72.60;;;;;;4970087;28;20035;-80
2021/12/13 01:03:47;;;;;;;11.27;7.30;;;4.30;73.30;;;;;;4962264;28;20030;-80
2021/12/13 01:06:28;;;;;;;13.20;8.70;;;4.40;73.80;;;;;;4908203;29;20028;-80
2021/12/13 01:09:21;;;;;;;15.97;8.80;;;4.70;73.10;;;;;;4972940;28;20042;-81
2021/12/13 01:11:52;;;;;;;11.30;7.50;;;4.70;72.90;;;;;;4965608;28;20042;-80
2021/12/13 01:14:18;;;;;;;10.77;7.50;;;4.80;73.30;;;;;;4974777;28;20022;-80
2021/12/13 01:19:58;;;;;;;14.90;9.30;;;4.90;72.80;;;;;;4982458;28;20505;-81
2021/12/13 01:23:00;;;;;;;17.60;9.80;;;4.90;72.80;;;;;;4979397;28;20038;-81
2021/12/13 01:25:47;;;;;;;19.90;9.77;;;4.90;72.50;;;;;;4970911;28;20543;-81
2021/12/13 01:28:25;;;;;;;17.10;9.53;;;4.80;72.50;;;;;;4986861;28;20053;-80
2021/12/13 01:31:14;;;;;;;12.53;8.87;;;4.80;72.80;;;;;;4979609;28;20125;-80
2021/12/13 01:33:44;;;;;;;11.73;9.13;;;4.80;72.80;;;;;;4980712;28;20057;-80
2021/12/13 01:36:12;;;;;;;15.87;9.13;;;4.80;72.70;;;;;;4984653;28;20041;-80
2021/12/13 01:39:01;;;;;;;14.30;8.97;;;4.80;72.60;;;;;;4965488;28;20105;-80
2021/12/13 01:41:31;;;;;;;14.80;9.83;;;4.80;72.80;;;;;;4981067;28;20022;-80
2021/12/13 01:44:02;;;;;;;18.10;12.07;;;4.80;72.70;;;;;;4967666;28;20031;-80
2021/12/13 01:46:28;;;;;;;19.30;11.53;;;4.80;72.60;;;;;;4965100;28;20569;-80
2021/12/13 01:48:54;;;;;;;17.33;10.97;;;4.80;72.70;;;;;;4966715;28;20030;-80
2021/12/13 01:51:26;;;;;;;17.77;9.70;;;4.80;72.90;;;;;;4980908;28;20026;-81
2021/12/13 01:53:54;;;;;;;16.20;9.70;;;4.90;73.00;;;;;;4962942;28;20041;-81
2021/12/13 01:56:40;;;;;;;18.43;10.80;;;4.90;72.80;;;;;;4962864;28;20041;-80
2021/12/13 01:59:28;;;;;;;15.20;10.20;;;5.00;72.80;;;;;;4986629;28;20038;-80
2021/12/13 02:02:01;;;;;;;21.57;10.93;;;4.90;72.70;;;;;;4989578;28;20049;-80
2021/12/13 02:04:27;;;;;;;;;;;5.00;72.60;;;;;;4981789;28;20065;-80
2021/12/13 02:07:00;;;;;;;19.70;10.60;;;5.00;72.70;;;;;;4959735;28;19949;-80
2021/12/13 02:09:31;;;;;;;15.57;10.63;;;5.00;72.60;;;;;;4967578;28;20030;-80
2021/12/13 02:11:58;;;;;;;17.63;10.13;;;5.00;72.50;;;;;;4976601;28;20045;-80
2021/12/13 02:14:29;;;;;;;16.00;10.93;;;5.00;72.50;;;;;;4971152;28;20045;-80
2021/12/13 02:17:11;;;;;;;19.37;11.10;;;5.00;72.40;;;;;;4969938;28;20030;-80
2021/12/13 02:19:39;;;;;;;18.90;11.97;;;5.00;72.60;;;;;;4987854;28;20539;-80
2021/12/13 02:22:33;;;;;;;18.90;12.23;;;5.00;72.60;;;;;;4985686;28;20234;-79
2021/12/13 02:25:16;;;;;;;12.10;8.87;;;5.00;72.70;;;;;;4975938;28;20042;-80
2021/12/13 02:27:48;;;;;;;14.53;9.23;;;5.00;72.40;;;;;;4968700;28;20035;-80
2021/12/13 02:30:44;;;;;;;13.47;9.37;;;4.90;72.30;;;;;;4986635;28;20030;-80
2021/12/13 02:33:20;;;;;;;14.20;9.23;;;4.90;72.50;;;;;;4985366;28;20125;-80
2021/12/13 02:35:57;;;;;;;14.13;9.40;;;4.90;72.60;;;;;;4987041;28;20034;-80
2021/12/13 02:38:23;;;;;;;11.70;8.73;;;4.90;72.60;;;;;;4987412;28;20480;-80
2021/12/13 02:40:51;;;;;;;17.93;9.10;;;4.90;72.80;;;;;;4974455;28;20030;-80
2021/12/13 02:43:19;;;;;;;15.93;8.90;;;4.80;72.70;;;;;;4966268;28;20066;-80
2021/12/13 02:45:50;;;;;;;12.87;8.40;;;4.90;72.40;;;;;;4988414;28;20027;-80
2021/12/13 02:48:25;;;;;;;13.30;8.67;;;4.70;72.50;;;;;;4986397;28;20073;-80
2021/12/13 02:51:01;;;;;;;13.13;8.70;;;4.70;73.30;;;;;;4970290;28;20086;-80
2021/12/13 02:53:47;;;;;;;15.07;9.80;;;4.80;72.80;;;;;;4958415;28;20458;-80
2021/12/13 02:56:16;;;;;;;14.53;9.67;;;4.60;72.90;;;;;;4989489;28;20125;-80
2021/12/13 02:58:43;;;;;;;14.17;9.23;;;4.50;73.10;;;;;;4985038;28;20038;-79
2021/12/13 03:01:27;;;;;;;15.03;9.43;;;4.50;73.40;;;;;;4972287;28;20026;-80
2021/12/13 03:03:57;;;;;;;18.23;10.80;;;4.50;74.20;;;;;;4988613;28;20030;-80
2021/12/13 03:06:28;;;;;;;17.13;10.30;;;4.60;73.70;;;;;;4988701;28;20026;-80
2021/12/13 03:09:00;;;;;;;18.43;10.60;;;4.60;73.70;;;;;;4965274;28;20038;-80
2021/12/13 03:11:30;;;;;;;17.98;9.65;;;4.60;73.70;;;;;;4983812;28;20034;-80
2021/12/13 03:14:18;;;;;;;12.20;8.83;;;4.60;73.90;;;;;;4976632;28;20065;-80
2021/12/13 03:17:07;;;;;;;15.17;10.33;;;4.80;74.30;;;;;;4950718;28;20053;-80
2021/12/13 03:19:52;;;;;;;14.10;9.93;;;4.70;73.40;;;;;;4987158;28;20093;-80
2021/12/13 03:22:41;;;;;;;16.00;9.67;;;4.60;73.90;;;;;;4967555;28;20374;-80
2021/12/13 03:25:28;;;;;;;15.80;11.27;;;4.60;75.00;;;;;;4968124;28;20117;-80
2021/12/13 03:27:56;;;;;;;16.73;11.57;;;4.60;74.10;;;;;;4971952;28;20034;-80
2021/12/13 03:31:01;;;;;;;13.83;11.23;;;4.60;74.20;;;;;;4960879;28;20030;-80
2021/12/13 03:33:53;;;;;;;15.47;10.40;;;4.50;74.60;;;;;;4940198;28;20043;-80
2021/12/13 03:36:24;;;;;;;14.93;10.20;;;4.60;74.90;;;;;;4971097;28;20027;-80
2021/12/13 03:38:55;;;;;;;13.87;11.00;;;4.60;74.60;;;;;;4964333;28;20081;-80
2021/12/13 03:41:24;;;;;;;15.63;11.43;;;4.60;74.60;;;;;;4985587;28;20033;-80
2021/12/13 03:43:58;;;;;;;18.97;11.90;;;4.60;74.80;;;;;;4971264;28;20466;-80
2021/12/13 03:46:27;;;;;;;16.30;10.47;;;4.60;74.80;;;;;;4981904;28;20474;-80
2021/12/13 03:48:54;;;;;;;14.87;10.73;;;4.70;74.80;;;;;;4985534;28;20080;-80
2021/12/13 03:51:27;;;;;;;15.67;11.63;;;4.70;74.70;;;;;;4969379;28;20027;-80
2021/12/13 03:53:55;;;;;;;16.45;11.82;;;4.80;74.60;;;;;;4960786;28;20035;-80
2021/12/13 03:56:31;;;;;;;18.23;12.40;;;4.80;74.40;;;;;;4981450;28;20405;-80
2021/12/13 03:59:00;;;;;;;13.87;11.53;;;4.80;74.50;;;;;;4972161;28;20497;-80
2021/12/13 04:01:36;;;;;;;18.97;11.70;;;4.90;74.40;;;;;;4958851;28;20498;-80
2021/12/13 04:04:06;;;;;;;15.00;11.77;;;4.80;74.70;;;;;;4967652;28;20038;-80
2021/12/13 04:06:32;;;;;;;16.03;11.23;;;4.90;74.70;;;;;;4982852;28;20031;-80
2021/12/13 04:08:59;;;;;;;14.50;11.10;;;4.90;74.60;;;;;;4959590;28;20034;-80
2021/12/13 04:11:27;;;;;;;16.17;11.70;;;5.00;74.80;;;;;;4985683;28;20036;-80
2021/12/13 04:14:05;;;;;;;14.43;9.80;;;5.00;74.80;;;;;;4985705;28;20026;-80
2021/12/13 04:17:06;;;;;;;16.23;11.30;;;5.00;75.00;;;;;;4985051;28;20101;-80
2021/12/13 04:19:49;;;;;;;13.80;9.70;;;4.90;74.40;;;;;;4949102;28;20034;-80
2021/12/13 04:22:18;;;;;;;13.73;10.05;;;5.00;75.20;;;;;;4984009;28;20410;-80
2021/12/13 04:24:55;;;;;;;15.67;11.27;;;5.20;75.10;;;;;;4962232;28;20438;-80
2021/12/13 04:27:36;;;;;;;18.77;12.23;;;5.30;74.60;;;;;;4972226;28;20046;-80
2021/12/13 04:30:22;;;;;;;17.33;11.80;;;5.10;74.20;;;;;;4970966;28;20030;-80
2021/12/13 04:32:53;;;;;;;14.47;10.97;;;4.90;74.50;;;;;;4983768;28;20038;-80
2021/12/13 04:35:20;;;;;;;14.27;11.10;;;4.90;75.10;;;;;;4965810;28;20046;-80
2021/12/13 04:37:51;;;;;;;20.40;14.67;;;5.00;75.20;;;;;;4966088;28;20093;-80
2021/12/13 04:40:24;;;;;;;18.17;13.63;;;5.10;75.10;;;;;;4982337;28;20033;-80
2021/12/13 04:42:58;;;;;;;18.30;11.97;;;5.10;74.90;;;;;;4989213;28;20041;-80
2021/12/13 04:45:25;;;;;;;16.03;11.57;;;5.10;74.80;;;;;;4968182;28;20114;-80
2021/12/13 04:48:15;;;;;;;16.10;10.77;;;5.10;75.00;;;;;;4993179;28;20030;-80
2021/12/13 04:51:05;;;;;;;14.43;10.10;;;5.10;74.80;;;;;;4972681;28;20382;-80
2021/12/13 04:53:38;;;;;;;17.27;10.93;;;5.00;74.80;;;;;;4969228;28;20494;-80
2021/12/13 04:56:07;;;;;;;21.20;13.15;;;4.90;75.00;;;;;;4965999;28;20124;-81
2021/12/13 04:58:33;;;;;;;13.43;11.50;;;4.90;75.20;;;;;;4988833;28;20590;-80
2021/12/13 05:01:03;;;;;;;15.67;11.23;;;5.00;75.40;;;;;;4976452;28;20490;-80
2021/12/13 05:03:32;;;;;;;14.00;10.13;;;4.90;75.20;;;;;;4960291;28;20019;-81
2021/12/13 05:06:00;;;;;;;17.37;11.23;;;4.90;75.40;;;;;;4967241;28;20027;-81
2021/12/13 05:08:27;;;;;;;14.50;10.90;;;4.90;75.40;;;;;;4965271;28;20491;-81
2021/12/13 05:10:52;;;;;;;14.57;10.17;;;5.00;75.60;;;;;;4974461;28;20093;-81
2021/12/13 05:13:29;;;;;;;19.33;12.73;;;5.00;75.60;;;;;;4970587;28;20442;-80
2021/12/13 05:16:28;;;;;;;16.97;12.60;;;5.10;75.50;;;;;;4984499;28;20065;-80
2021/12/13 05:18:56;;;;;;;26.10;13.83;;;5.10;75.20;;;;;;4953970;28;20042;-80
2021/12/13 05:21:36;;;;;;;17.63;12.43;;;5.10;75.10;;;;;;4984889;28;20018;-80
2021/12/13 05:24:09;;;;;;;14.87;10.87;;;5.10;75.10;;;;;;4992092;28;20018;-80
2021/12/13 05:26:43;;;;;;;16.47;11.27;;;5.10;75.10;;;;;;4979966;28;20046;-80
2021/12/13 05:29:25;;;;;;;15.13;10.60;;;5.10;75.30;;;;;;4970709;28;20029;-80
2021/12/13 05:31:54;;;;;;;12.98;10.63;;;5.10;75.20;;;;;;4963023;28;20038;-80
2021/12/13 05:34:20;;;;;;;16.67;12.03;;;5.10;75.20;;;;;;4982150;28;20026;-78
2021/12/13 05:36:56;;;;;;;30.57;20.03;;;5.10;75.10;;;;;;4982734;28;20026;-78
2021/12/13 05:39:22;;;;;;;22.70;17.23;;;5.10;75.30;;;;;;4970831;28;20502;-78
2021/12/13 05:41:56;;;;;;;21.97;16.67;;;5.20;75.30;;;;;;4977272;28;20019;-78
2021/12/13 05:44:29;;;;;;;19.50;13.60;;;5.20;75.30;;;;;;4981616;28;20029;-78
2021/12/13 05:46:56;;;;;;;18.15;11.68;;;5.10;75.20;;;;;;4956802;28;20033;-78
2021/12/13 05:49:30;;;;;;;19.57;12.60;;;5.20;75.20;;;;;;4980389;28;20027;-78
2021/12/13 05:52:19;;;;;;;21.47;13.27;;;5.20;75.40;;;;;;4974377;28;20093;-78
2021/12/13 05:54:53;;;;;;;19.07;13.40;;;5.20;75.30;;;;;;4970459;28;20509;-78
2021/12/13 05:57:27;;;;;;;18.03;13.63;;;5.20;75.20;;;;;;4968115;28;20042;-78
2021/12/13 05:59:55;;;;;;;16.50;12.60;;;5.20;75.30;;;;;;4969489;28;20518;-78
2021/12/13 06:02:46;;;;;;;16.97;13.33;;;5.20;75.20;;;;;;4979721;28;20026;-78
2021/12/13 06:05:16;;;;;;;20.37;15.77;;;5.20;75.20;;;;;;4976173;28;20541;-78
2021/12/13 06:07:51;;;;;;;21.70;16.27;;;5.20;75.00;;;;;;4986488;28;20023;-78
2021/12/13 06:10:18;;;;;;;23.00;15.80;;;5.10;75.10;;;;;;4981061;28;20125;-79
2021/12/13 06:12:57;;;;;;;18.73;14.67;;;5.10;75.50;;;;;;4986279;28;20042;-79
2021/12/13 06:15:32;;;;;;;19.23;15.83;;;5.20;75.60;;;;;;4985121;28;20034;-79
2021/12/13 06:18:04;;;;;;;23.17;16.20;;;5.30;75.60;;;;;;4959318;28;20038;-79
2021/12/13 06:21:01;;;;;;;22.90;16.50;;;5.20;75.50;;;;;;4984477;28;20170;-79
2021/12/13 06:23:30;;;;;;;24.23;16.57;;;5.20;75.70;;;;;;4948180;28;20121;-79
2021/12/13 06:26:14;;;;;;;24.40;17.13;;;5.30;75.60;;;;;;4982127;28;20023;-79
2021/12/13 06:28:43;;;;;;;22.60;16.10;;;5.30;75.40;;;;;;4973319;28;20475;-79
2021/12/13 06:31:15;;;;;;;19.70;14.17;;;5.30;75.50;;;;;;4984003;28;20482;-79
2021/12/13 06:33:51;;;;;;;24.75;18.50;;;5.20;75.40;;;;;;4982036;28;20019;-79
2021/12/13 06:36:30;;;;;;;28.00;21.93;;;5.20;75.50;;;;;;4968941;28;20061;-78
2021/12/13 06:39:03;;;;;;;26.90;19.03;;;5.20;75.50;;;;;;4977156;28;20034;-79
2021/12/13 06:41:29;;;;;;;33.57;23.30;;;5.20;75.50;;;;;;4960215;28;20031;-79
2021/12/13 06:44:01;;;;;;;33.03;26.33;;;5.20;75.80;;;;;;4987176;28;20110;-79
2021/12/13 06:46:26;;;;;;;28.63;22.48;;;5.20;75.80;;;;;;4976520;28;20023;-78
2021/12/13 06:49:10;;;;;;;24.17;18.20;;;5.20;75.70;;;;;;4988490;28;20407;-79
2021/12/13 06:52:05;;;;;;;29.63;22.00;;;5.30;75.80;;;;;;4989000;28;20482;-79
2021/12/13 06:54:36;;;;;;;34.73;22.47;;;5.30;75.80;;;;;;4972121;28;20089;-79
2021/12/13 06:57:09;;;;;;;31.07;20.77;;;5.30;76.00;;;;;;4971792;28;20038;-79
2021/12/13 06:59:45;;;;;;;;;;;5.30;75.80;;;;;;4983877;28;20046;-79
2021/12/13 07:02:15;;;;;;;30.10;18.77;;;5.20;75.70;;;;;;4978986;28;19964;-79
2021/12/13 07:05:20;;;;;;;24.63;15.93;;;5.20;75.90;;;;;;4965534;28;20033;-79
2021/12/13 07:07:52;;;;;;;23.43;15.40;;;5.20;76.00;;;;;;4901789;29;20441;-79
2021/12/13 07:11:00;;;;;;;24.37;14.57;;;5.20;75.90;;;;;;4894440;29;20068;-79
2021/12/13 07:14:04;;;;;;;21.07;14.43;;;5.20;75.90;;;;;;4872961;29;20435;-79
2021/12/13 07:16:34;;;;;;;26.38;14.27;;;5.20;75.80;;;;;;4829375;29;20041;-79
2021/12/13 07:19:08;;;;;;;25.53;15.10;;;5.20;75.60;;;;;;4947682;28;20035;-79
2021/12/13 07:21:49;;;;;;;19.97;13.07;;;5.20;75.80;;;;;;4977638;28;20054;-79
2021/12/13 07:24:42;;;;;;;18.77;12.33;;;5.20;75.90;;;;;;4967433;28;20030;-79
2021/12/13 07:27:15;;;;;;;17.90;13.38;;;5.30;75.90;;;;;;4967345;28;20092;-79
2021/12/13 07:29:55;;;;;;;21.87;12.77;;;5.30;75.90;;;;;;4991144;28;20037;-79
2021/12/13 07:32:20;;;;;;;21.40;13.73;;;5.30;75.90;;;;;;4981854;28;20052;-79
2021/12/13 07:34:51;;;;;;;18.77;13.00;;;5.30;75.80;;;;;;4975135;28;20030;-79
2021/12/13 07:37:31;;;;;;;25.83;16.77;;;5.30;75.70;;;;;;4976968;28;20023;-79
2021/12/13 07:40:12;;;;;;;22.97;15.63;;;5.20;75.60;;;;;;4969737;28;20023;-79
2021/12/13 07:42:38;;;;;;;18.67;15.20;;;5.10;76.30;;;;;;4979218;28;20034;-79
2021/12/13 07:45:41;;;;;;;21.30;15.20;;;5.20;76.30;;;;;;4969238;28;20031;-79
2021/12/13 07:48:17;;;;;;;19.08;14.02;;;5.30;76.90;;;;;;4959092;28;20422;-79
2021/12/13 07:50:47;;;;;;;17.73;13.80;;;5.30;76.10;;;;;;4976625;28;20074;-79
2021/12/13 07:53:16;;;;;;;17.90;13.10;;;5.30;76.10;;;;;;4961311;28;20119;-79
2021/12/13 07:55:47;;;;;;;18.63;12.77;;;5.20;75.50;;;;;;4964646;28;20604;-79
2021/12/13 07:58:17;;;;;;;17.27;12.23;;;5.10;76.50;;;;;;4976159;28;20672;-80
2021/12/13 08:00:45;;;;;;;21.47;12.60;;;5.10;76.60;;;;;;4982966;28;20388;-79
2021/12/13 08:03:14;;;;;;;19.67;13.10;;;5.20;76.40;;;;;;4977980;28;20027;-79
2021/12/13 08:05:50;;;;;;;19.63;14.03;;;5.20;76.50;;;;;;4965040;28;20029;-79
2021/12/13 08:08:24;;;;;;;25.87;14.23;;;5.10;76.50;;;;;;4985020;28;20050;-79
2021/12/13 08:10:55;;;;;;;21.63;13.93;;;5.10;76.60;;;;;;4972671;28;20035;-79
2021/12/13 08:13:31;;;;;;;18.73;14.80;;;5.20;76.70;;;;;;4982208;28;20049;-79
2021/12/13 08:16:02;;;;;;;18.37;15.03;;;5.20;76.90;;;;;;4978517;28;20041;-79
2021/12/13 08:18:33;;;;;;;20.70;15.00;;;5.20;76.50;;;;;;4964874;28;20026;-79
2021/12/13 08:21:20;;;;;;;20.90;14.93;;;5.20;76.50;;;;;;4986504;28;20031;-79
2021/12/13 08:23:51;;;;;;;19.50;13.73;;;5.20;77.40;;;;;;4969596;28;20105;-79
2021/12/13 08:26:34;;;;;;;16.83;13.10;;;5.20;77.00;;;;;;4997794;28;20026;-79
2021/12/13 08:29:03;;;;;;;18.80;13.70;;;5.30;76.90;;;;;;4981732;28;20037;-79
2021/12/13 08:31:35;;;;;;;20.07;14.37;;;5.30;76.50;;;;;;4984587;28;20093;-79
2021/12/13 08:34:09;;;;;;;17.90;14.07;;;5.30;76.40;;;;;;4984916;28;20018;-79
2021/12/13 08:36:39;;;;;;;20.03;13.13;;;5.30;76.70;;;;;;4960993;28;20573;-79
2021/12/13 08:39:09;;;;;;;21.70;15.43;;;5.30;76.90;;;;;;4972339;28;20121;-79
2021/12/13 08:41:44;;;;;;;19.30;15.03;;;5.40;77.00;;;;;;4967170;28;20037;-79
2021/12/13 08:44:10;;;;;;;17.63;14.67;;;5.50;76.90;;;;;;4981836;28;20114;-79
2021/12/13 08:46:51;;;;;;;21.47;16.23;;;5.50;76.70;;;;;;4978914;28;20094;-79
2021/12/13 08:49:33;;;;;;;21.30;15.33;;;5.60;76.60;;;;;;4981206;28;20030;-79
2021/12/13 08:52:14;;;;;;;20.50;14.35;;;5.60;76.40;;;;;;4959593;28;20042;-79
2021/12/13 08:54:51;;;;;;;21.00;15.07;;;5.60;76.50;;;;;;4979974;28;20536;-79
2021/12/13 08:57:50;;;;;;;22.50;15.13;;;5.60;76.30;;;;;;4987022;28;20053;-80
2021/12/13 09:00:25;;;;;;;28.57;18.27;;;5.60;76.50;;;;;;4982378;28;20394;-79
2021/12/13 09:02:58;;;;;;;22.93;15.67;;;5.60;76.30;;;;;;4978388;28;20117;-79
2021/12/13 09:05:36;;;;;;;31.10;18.05;;;5.70;76.50;;;;;;4978855;28;20062;-79
2021/12/13 09:08:10;;;;;;;22.50;15.40;;;5.70;76.20;;;;;;4977896;28;20023;-80
2021/12/13 09:10:47;;;;;;;21.60;15.27;;;5.70;76.80;;;;;;4968574;28;20029;-79
2021/12/13 09:13:16;;;;;;;27.40;18.40;;;5.80;76.30;;;;;;4974155;28;20214;-80
2021/12/13 09:15:46;;;;;;;30.93;18.17;;;5.80;76.10;;;;;;4977615;28;20029;-80
2021/12/13 09:18:18;;;;;;;33.43;22.67;;;5.80;76.20;;;;;;4979192;28;20101;-79
2021/12/13 09:20:53;;;;;;;26.77;17.35;;;5.80;76.20;;;;;;4975066;28;20034;-79
2021/12/13 09:23:19;;;;;;;20.83;15.17;;;5.80;76.30;;;;;;4976329;28;20027;-79
2021/12/13 09:25:47;;;;;;;19.97;13.93;;;5.90;76.10;;;;;;4984288;28;20523;-79
2021/12/13 09:28:15;;;;;;;23.67;15.90;;;5.90;75.70;;;;;;4960971;28;20410;-79
2021/12/13 09:30:46;;;;;;;26.23;16.23;;;5.90;75.90;;;;;;4968955;28;20485;-79
2021/12/13 09:33:23;;;;;;;22.50;15.53;;;5.90;75.80;;;;;;4963012;28;20042;-80
2021/12/13 09:35:51;;;;;;;20.47;15.13;;;5.90;75.70;;;;;;4963680;28;20062;-80
2021/12/13 09:38:17;;;;;;;23.57;16.20;;;6.00;75.50;;;;;;4979969;28;20081;-80
2021/12/13 09:40:45;;;;;;;24.07;17.30;;;6.00;75.60;;;;;;4962163;28;20027;-79
2021/12/13 09:43:11;;;;;;;22.60;17.47;;;6.10;75.60;;;;;;4957604;28;20027;-80
2021/12/13 09:45:47;;;;;;;24.70;17.53;;;6.20;75.50;;;;;;4977377;28;20085;-80
2021/12/13 09:48:30;;;;;;;28.30;17.07;;;6.20;75.30;;;;;;4983982;28;20098;-80
2021/12/13 09:51:01;;;;;;;19.67;13.93;;;6.30;75.10;;;;;;4979188;28;20394;-80
2021/12/13 09:53:31;;;;;;;17.13;13.60;;;6.30;75.10;;;;;;4991733;28;20081;-80
2021/12/13 09:55:59;;;;;;;19.90;14.80;;;6.40;75.10;;;;;;4990340;28;20414;-79
2021/12/13 09:58:36;;;;;;;20.83;14.73;;;6.40;74.90;;;;;;4985666;28;20098;-80
2021/12/13 10:01:08;;;;;;;21.43;15.50;;;6.40;74.80;;;;;;4959815;28;20538;-79
2021/12/13 10:03:52;;;;;;;20.67;15.63;;;6.50;74.80;;;;;;4970461;28;20122;-80
2021/12/13 10:06:28;;;;;;;24.20;15.33;;;6.50;75.00;;;;;;4972068;28;20074;-79
2021/12/13 10:09:16;;;;;;;35.23;16.83;;;6.50;75.10;;;;;;4981257;28;20062;-80
2021/12/13 10:11:57;;;;;;;20.70;13.67;;;6.50;74.80;;;;;;4976695;28;20055;-79
2021/12/13 10:14:28;;;;;;;24.33;15.33;;;6.50;74.70;;;;;;4982947;28;21505;-80
2021/12/13 10:16:56;;;;;;;23.20;17.10;;;6.50;74.70;;;;;;4978316;28;20042;-80
2021/12/13 10:19:31;;;;;;;19.93;14.07;;;6.50;74.70;;;;;;4968483;28;20026;-80
2021/12/13 10:21:58;;;;;;;26.97;16.83;;;6.60;74.60;;;;;;4971638;28;20478;-79
2021/12/13 10:24:32;;;;;;;21.90;15.63;;;6.60;74.50;;;;;;4957957;28;20034;-80
2021/12/13 10:26:59;;;;;;;23.63;16.43;;;6.60;74.50;;;;;;4979242;28;20114;-79
2021/12/13 10:29:26;;;;;;;27.00;19.03;;;6.70;74.50;;;;;;4981672;28;20053;-81
2021/12/13 10:32:06;;;;;;;36.97;20.97;;;6.70;74.60;;;;;;4978486;28;20030;-81
2021/12/13 10:34:36;;;;;;;28.63;18.73;;;6.70;74.50;;;;;;4984384;28;20026;-79
2021/12/13 10:37:13;;;;;;;21.97;16.60;;;6.80;74.50;;;;;;4981197;28;20113;-79
2021/12/13 10:40:12;;;;;;;19.57;15.10;;;6.80;74.40;;;;;;4979798;28;20026;-79
2021/12/13 10:42:45;;;;;;;25.13;16.60;;;6.80;74.30;;;;;;4982240;28;20027;-80
2021/12/13 10:45:23;;;;;;;28.10;16.77;;;6.80;74.20;;;;;;4969515;28;20038;-79
2021/12/13 10:47:52;;;;;;;22.17;16.83;;;6.80;74.20;;;;;;4963169;28;20543;-80
2021/12/13 10:50:29;;;;;;;26.60;18.17;;;6.80;74.30;;;;;;4981527;28;20038;-80
2021/12/13 10:52:56;;;;;;;30.80;17.10;;;6.90;74.20;;;;;;4965771;28;20053;-79
2021/12/13 10:55:28;;;;;;;26.97;18.17;;;6.90;74.10;;;;;;4966420;28;20066;-80
2021/12/13 10:57:54;;;;;;;25.53;17.03;;;6.90;74.30;;;;;;4961967;28;20034;-80
2021/12/13 11:00:25;;;;;;;26.70;19.07;;;6.90;74.10;;;;;;4976358;28;20080;-80
2021/12/13 11:03:00;;;;;;;24.83;18.10;;;6.90;74.10;;;;;;4958940;28;20599;-80
2021/12/13 11:05:28;;;;;;;30.33;17.93;;;6.90;74.10;;;;;;4973105;28;20081;-80
2021/12/13 11:07:55;;;;;;;24.50;18.07;;;6.90;74.00;;;;;;4980761;28;20033;-80
2021/12/13 11:10:26;;;;;;;24.37;17.10;;;6.90;74.00;;;;;;4982752;28;20030;-80
2021/12/13 11:12:54;;;;;;;26.93;17.00;;;6.90;74.00;;;;;;4957871;28;20042;-80
2021/12/13 11:15:27;;;;;;;22.87;17.77;;;7.00;74.00;;;;;;4980749;28;20032;-80
2021/12/13 11:17:54;;;;;;;30.70;18.93;;;7.00;73.90;;;;;;4975967;28;20031;-80
2021/12/13 11:20:26;;;;;;;29.67;19.37;;;7.00;73.80;;;;;;4981973;28;20026;-80
2021/12/13 11:22:53;;;;;;;24.15;18.92;;;7.00;73.80;;;;;;4975892;28;20041;-80
2021/12/13 11:25:32;;;;;;;31.97;20.10;;;7.00;73.80;;;;;;4959804;28;20399;-80
2021/12/13 11:27:58;;;;;;;27.47;19.20;;;6.90;73.80;;;;;;4979007;28;20027;-80
2021/12/13 11:30:27;;;;;;;31.10;20.70;;;7.00;73.80;;;;;;4980838;28;20544;-81
2021/12/13 11:32:58;;;;;;;27.47;19.17;;;7.00;73.70;;;;;;4984171;28;20034;-81
2021/12/13 11:36:07;;;;;;;26.70;18.93;;;7.00;73.70;;;;;;4977048;28;20030;-80
2021/12/13 11:39:15;;;;;;;25.97;18.23;;;7.00;73.60;;;;;;4947634;28;20125;-80
2021/12/13 11:42:07;;;;;;;25.00;17.87;;;7.00;73.60;;;;;;4969671;28;20019;-80
2021/12/13 11:45:09;;;;;;;27.40;18.13;;;7.10;73.50;;;;;;4986156;28;20018;-80
2021/12/13 11:48:09;;;;;;;26.38;17.58;;;7.20;73.40;;;;;;4964468;28;20027;-80
2021/12/13 11:51:00;;;;;;;23.83;17.67;;;7.10;73.30;;;;;;4992711;28;20026;-80
2021/12/13 11:53:47;;;;;;;23.97;16.83;;;7.20;73.30;;;;;;4969802;28;20046;-80
2021/12/13 11:56:36;;;;;;;20.67;16.23;;;7.20;73.10;;;;;;4979905;28;20046;-80
2021/12/13 11:59:34;;;;;;;23.13;17.50;;;7.30;73.20;;;;;;4986405;28;20051;-82
2021/12/13 12:02:01;;;;;;;27.17;17.57;;;7.30;73.00;;;;;;4950296;28;20418;-79
2021/12/13 12:04:49;;;;;;;27.67;19.90;;;7.30;72.90;;;;;;4961994;28;20027;-79
2021/12/13 12:07:14;;;;;;;35.13;21.53;;;7.30;72.90;;;;;;4980259;28;20026;-80
2021/12/13 12:10:14;;;;;;;27.00;20.43;;;7.30;72.80;;;;;;4966225;28;20041;-80
2021/12/13 12:13:16;;;;;;;30.60;20.73;;;7.30;72.60;;;;;;4978658;28;20035;-80
2021/12/13 12:15:45;;;;;;;24.23;18.27;;;7.30;72.70;;;;;;4970778;28;20036;-80
2021/12/13 12:18:22;;;;;;;26.57;18.03;;;7.30;72.50;;;;;;4983909;28;20085;-80
2021/12/13 12:21:10;;;;;;;30.30;18.27;;;7.30;72.50;;;;;;4985954;28;20027;-80
2021/12/13 12:23:38;;;;;;;30.53;19.80;;;7.30;72.60;;;;;;4965586;28;20038;-80
2021/12/13 12:26:04;;;;;;;36.13;20.57;;;7.30;72.60;;;;;;4960603;28;20086;-80
2021/12/13 12:28:32;;;;;;;26.27;19.47;;;7.40;72.80;;;;;;4962115;28;20035;-80
2021/12/13 12:30:59;;;;;;;28.97;20.37;;;7.40;72.70;;;;;;4979709;28;20053;-80
2021/12/13 12:33:32;;;;;;;28.87;20.70;;;7.40;72.70;;;;;;4980874;28;20026;-80
2021/12/13 12:36:06;;;;;;;33.20;20.50;;;7.40;72.80;;;;;;4960429;28;20481;-80
2021/12/13 12:39:06;;;;;;;29.17;20.60;;;7.40;72.80;;;;;;4970268;28;20029;-80
2021/12/13 12:41:58;;;;;;;29.90;20.03;;;7.30;72.70;;;;;;4977657;28;20090;-80
2021/12/13 12:44:32;;;;;;;29.90;20.10;;;7.30;72.90;;;;;;4975812;28;20496;-80
2021/12/13 12:46:58;;;;;;;31.00;18.50;;;7.40;72.70;;;;;;4978725;28;20023;-81
2021/12/13 12:49:25;;;;;;;23.50;17.40;;;7.30;72.60;;;;;;4968722;28;20363;-80
2021/12/13 12:51:53;;;;;;;21.30;15.63;;;7.30;72.60;;;;;;4958751;28;20113;-80
2021/12/13 12:54:21;;;;;;;23.17;18.13;;;7.30;72.70;;;;;;4985593;28;20501;-80
2021/12/13 12:56:58;;;;;;;27.80;19.07;;;7.30;72.90;;;;;;4984570;28;20518;-80
2021/12/13 12:59:28;;;;;;;25.93;17.97;;;7.30;72.80;;;;;;4961976;28;20126;-80
2021/12/13 13:02:04;;;;;;;27.97;20.43;;;7.40;72.80;;;;;;4963861;28;20031;-80
2021/12/13 13:04:31;;;;;;;27.40;20.73;;;7.40;72.70;;;;;;4964970;28;20018;-80
2021/12/13 13:07:03;;;;;;;28.00;17.50;;;7.40;72.70;;;;;;4959857;28;20026;-80
2021/12/13 13:09:41;;;;;;;30.03;17.80;;;7.50;72.50;;;;;;4959372;28;20027;-80
2021/12/13 13:12:09;;;;;;;23.10;18.23;;;7.50;72.50;;;;;;4981626;28;20468;-79
2021/12/13 13:14:45;;;;;;;22.43;16.10;;;7.40;72.40;;;;;;4960574;28;20081;-80
2021/12/13 13:17:11;;;;;;;21.13;15.83;;;7.40;72.40;;;;;;4975133;28;20031;-80
2021/12/13 13:19:41;;;;;;;22.53;15.83;;;7.30;72.60;;;;;;4969384;28;20037;-80
2021/12/13 13:22:14;;;;;;;21.80;15.77;;;7.40;72.60;;;;;;4980273;28;20015;-80
2021/12/13 13:24:45;;;;;;;25.07;15.67;;;7.40;72.60;;;;;;4961213;28;20105;-80